Warning: Javascript must be enabled to use all the features on this page!


Page Loading - Please Wait...

* We've detected you're using a mobile device. Find our Next Generation Station Page here.
Click to hideNews Bulletins

Peak Streamflow for the Nation

USGS 02472000 LEAF RIVER NR COLLINS, MS

Covington County, Mississippi
Hydrologic Unit Code 03170004
Latitude  31°42'25", Longitude  89°24'25" NAD83
Drainage area 743  square miles
Contributing drainage area 743  square miles
Gage datum 197.01 feet above NGVD29
Output formats
Table
Graph
Tab-separated file
peakfq (watstore) format
Reselect output format
Water
Year
Date Gage
Height
(feet)
Stream-
flow
(cfs)
1856 1856-04 33.00Bd 56,0007,Bd
1900 1900-04 32.00Bd 50,0007,Bd
1939 1939-03-07 18.69 9,000
1940 1940-05-02 26.36 22,800
1941 1940-12-19 15.86 6,500
1942 1942-03-22 22.78 15,000
1943 1943-03-21 23.09 15,600
1944 1944-04-27 23.61 16,600
1945 1945-02-23 17.60 8,080
1946 1946-02-13 21.07 12,200
1947 1947-01-21 26.08 22,100
1948 1948-03-06 23.54 16,400
1949 1949-04-01 26.39 22,800
1950 1950-01-08 31.14 45,400
1951 1951-03-31 26.31 22,600
1952 1952-05-25 13.32 4,590
1953 1953-05-05 22.60 14,600
1954 1954-03-30 17.13 7,580
1955 1955-04-16 21.49 14,200
1956 1956-03-18 25.00 20,100
1957 1957-04-05 19.07 9,620
1958 1958-03-10 17.16 8,540
1959 1959-04-21 16.02 7,200
1960 1960-03-15 15.87 7,220
1961 1961-02-23 31.65 48,500
1962 1961-12-19 25.08 20,500
1963 1963-01-23 15.43 6,760
1964 1964-04-08 26.00 23,000
1965 1965-02-13 21.40 14,000
1966 1966-02-16 22.58 17,200
1967 1967-05-07 16.89 8,250
1968 1967-12-18 18.06 9,570
1969 1969-04-15 22.09 16,000
1970 1970-05-04 14.12 6,320
1971 1971-05-15 18.60 10,200
1972 1971-12-09 21.31 14,300
1973 1973-04-02 25.02 20,500
1974 1974-04-14 32.60 54,200
1975 1975-01-13 23.67 18,100
1976 1976-04-02 23.77 18,200
1977 1977-03-06 22.61 16,400
1978 1978-01-27 16.62 9,000
1979 1979-03-05 29.44 36,900
1980 1980-04-14 28.19 31,300
1981 1981-04-02 21.54 15,900
1982 1982-02-19 18.08 10,800
1983 1983-04-08 28.11 31,000
1984 1984-03-08 17.28 9,800
1985 1984-10-24 19.77 13,200
1986 1985-10-30 16.16 8,420
1987 1987-03-01 26.57 25,700
1988 1988-04-03 16.84 7,720
1989 1989-01-03 18.31 10,800
1990 1990-02-17 31.44 46,700
1991 1991-05-01 24.50 22,600
1992 1992-02-17 15.22 7,150
1993 1993-07-15 24.89 21,500
1994 1994-01-30 25.01 21,700
1995 1995-04-25 21.17 14,700
1996 1996-03-09 19.32 12,100
1997 1997-04-29 27.97 29,800
1998 1998-01-10 22.33 15,900
1999 1999-02-02 21.89 15,300
2000 2000-04-06 15.59 7,190
2001 2001-03-04 25.08 21,200
2002 2001-12-16 18.06 10,000
2003 2003-02-24 28.04 30,600
2004 2004-02-08 28.16 31,100
2005 2005-02-02 18.07 10,000
2006 2006-03-23 20.40 13,300
2007 2007-01-03 14.28 6,260
2008 2008-02-25 20.20 13,200
2009 2009-03-29 24.31 19,600
2010 2009-12-18 16.36 8,370
2011 2011-03-12 22.42 16,100
2012 2012-03-25 23.89 18,700
2013 2013-02-14 23.63 18,200
2014 2014-04-09 28.05 30,600
2015 2015-01-04 21.18 14,400
2016 2016-03-13 24.76 20,500
2017 2017-04-06 23.34 17,600
2018 2018-02-28 17.73 9,920
2019 2018-12-30 23.77 18,500
?
  Peak Gage-Height Qualification Codes.
?
  Peak Streamflow Qualification Codes.